Time;durP1;ratioP1;P1;durP2;ratioP2;P2;SDS_P1;SDS_P2;PMS_P1;PMS_P2;Temp;Humidity;BMP_temperature;BMP_pressure;BME280_temperature;BME280_humidity;BME280_pressure;Samples;Min_cycle;Max_cycle;Signal;HPM_P1;HPM_P2
2023/03/15 00:02:22;;;;;;;4.07;2.77;;;;;;;2.52;100.00;152013.25;5060455;28;20510;-86
2023/03/15 00:04:49;;;;;;;4.97;3.00;;;;;;;2.57;100.00;152026.13;5036960;28;20463;-86
2023/03/15 00:07:17;;;;;;;4.03;3.20;;;;;;;2.52;100.00;152011.97;5064295;28;20545;-86
2023/03/15 00:09:44;;;;;;;4.73;3.07;;;;;;;2.56;100.00;152022.28;5069752;28;20474;-87
2023/03/15 00:12:11;;;;;;;4.77;3.57;;;;;;;2.58;100.00;152027.41;5080708;28;20434;-86
2023/03/15 00:14:38;;;;;;;4.20;3.37;;;;;;;2.68;100.00;152053.13;5048836;28;20487;-87
2023/03/15 00:17:04;;;;;;;6.03;4.10;;;;;;;2.62;100.00;152037.72;5069666;28;20827;-86
2023/03/15 00:19:31;;;;;;;6.27;4.23;;;;;;;2.71;100.00;152060.84;5057413;28;20549;-87
2023/03/15 00:21:58;;;;;;;4.53;3.63;;;;;;;2.64;100.00;152044.16;5056098;28;20480;-87
2023/03/15 00:24:26;;;;;;;7.07;3.80;;;;;;;2.65;100.00;152045.44;5066204;28;20993;-87
2023/03/15 00:26:53;;;;;;;8.60;4.00;;;;;;;2.59;100.00;152030.00;5048632;28;20535;-86
2023/03/15 00:29:20;;;;;;;5.77;4.07;;;;;;;2.62;100.00;152038.97;5056846;28;20456;-87
2023/03/15 00:31:47;;;;;;;4.70;3.67;;;;;;;2.65;100.00;152045.44;5063008;28;20970;-87
2023/03/15 00:34:14;;;;;;;5.43;4.13;;;;;;;2.57;100.00;152024.88;5057331;28;20570;-86
2023/03/15 00:36:42;;;;;;;5.70;3.67;;;;;;;2.57;100.00;152024.88;5049436;28;20881;-87
2023/03/15 00:39:09;;;;;;;5.80;3.93;;;;;;;2.56;100.00;152022.28;5065383;28;20456;-87
2023/03/15 00:41:37;;;;;;;4.83;3.40;;;;;;;2.56;100.00;152023.56;5074057;28;20443;-87
2023/03/15 00:44:04;;;;;;;5.50;3.33;;;;;;;2.61;100.00;152036.44;5084031;28;20463;-87
2023/03/15 00:46:31;;;;;;;6.90;3.83;;;;;;;2.58;100.00;152027.41;5068310;28;20513;-87
2023/03/15 00:48:58;;;;;;;9.93;4.33;;;;;;;2.52;100.00;152011.97;5057694;28;20474;-86
2023/03/15 00:51:24;;;;;;;5.27;3.80;;;;;;;2.54;100.00;152017.16;5051734;28;20431;-87
2023/03/15 00:53:52;;;;;;;6.43;3.97;;;;;;;2.47;100.00;152001.69;5085823;28;20568;-87
2023/03/15 00:56:21;;;;;;;5.70;4.80;;;;;;;2.41;100.00;151986.25;5071547;28;20554;-86
2023/03/15 00:58:51;;;;;;;8.00;4.73;;;;;;;2.37;100.00;151976.00;5068847;28;20801;-86
2023/03/15 01:01:20;;;;;;;8.37;4.77;;;;;;;2.42;100.00;151988.84;5053703;28;20839;-86
2023/03/15 01:03:47;;;;;;;7.07;4.07;;;;;;;2.40;100.00;151983.72;5033727;28;20494;-86
2023/03/15 01:06:15;;;;;;;6.27;4.67;;;;;;;2.42;100.00;151988.84;5051339;28;20526;-85
2023/03/15 01:08:41;;;;;;;5.00;3.80;;;;;;;2.42;100.00;151987.53;5053509;28;20490;-86
2023/03/15 01:11:10;;;;;;;5.70;3.90;;;;;;;2.42;100.00;151988.84;5060679;28;20539;-86
2023/03/15 01:13:37;;;;;;;6.37;4.27;;;;;;;2.45;100.00;151996.56;5047760;28;20464;-85
2023/03/15 01:16:07;;;;;;;4.87;3.47;;;;;;;2.50;100.00;152006.84;5078972;28;20454;-86
2023/03/15 01:18:34;;;;;;;7.73;4.10;;;;;;;2.45;100.00;151996.56;5035513;28;20432;-86
2023/03/15 01:21:00;;;;;;;7.70;4.70;;;;;;;2.45;100.00;151996.56;5054213;28;20806;-86
2023/03/15 01:23:27;;;;;;;4.10;3.10;;;;;;;2.42;100.00;151988.84;5034560;28;20505;-85
2023/03/15 01:25:54;;;;;;;7.10;4.03;;;;;;;2.46;100.00;151999.09;5035023;28;20489;-86
2023/03/15 01:28:21;;;;;;;4.47;2.73;;;;;;;2.43;100.00;151990.13;5034863;28;20440;-86
2023/03/15 01:30:51;;;;;;;5.40;3.20;;;;;;;2.41;100.00;151986.25;5047664;28;20529;-86
2023/03/15 01:33:20;;;;;;;5.77;3.37;;;;;;;2.41;100.00;151986.25;5069046;28;20442;-86
2023/03/15 01:35:46;;;;;;;5.20;2.90;;;;;;;2.39;100.00;151979.81;5052676;28;20542;-86
2023/03/15 01:38:13;;;;;;;5.10;3.03;;;;;;;2.41;100.00;151986.25;5074776;28;20867;-86
2023/03/15 01:40:44;;;;;;;5.20;3.13;;;;;;;2.39;100.00;151981.13;5048228;28;20477;-86
2023/03/15 01:43:16;;;;;;;5.03;2.60;;;;;;;2.34;100.00;151968.25;5048757;28;20439;-87
2023/03/15 01:46:13;;;;;;;3.20;2.00;;;;;;;2.25;100.00;151943.84;5064781;28;20550;-87
2023/03/15 01:48:45;;;;;;;4.40;2.57;;;;;;;2.17;100.00;151924.53;5043006;28;20454;-86
2023/03/15 01:51:20;;;;;;;4.40;2.50;;;;;;;2.17;100.00;151924.53;5057943;28;20460;-87
2023/03/15 01:53:50;;;;;;;7.20;3.30;;;;;;;2.14;100.00;151916.84;5038136;28;20481;-87
2023/03/15 01:56:17;;;;;;;5.07;2.60;;;;;;;2.10;100.00;151905.25;5055281;28;20802;-86
2023/03/15 01:58:46;;;;;;;4.57;3.20;;;;;;;2.04;100.00;151889.84;5054540;28;20458;-86
2023/03/15 02:01:14;;;;;;;2.80;2.30;;;;;;;1.99;100.00;151878.25;5067706;28;20529;-86
2023/03/15 02:03:47;;;;;;;3.40;2.50;;;;;;;1.98;100.00;151874.41;5055220;28;20508;-87
2023/03/15 02:06:17;;;;;;;5.77;2.43;;;;;;;1.95;100.00;151868.00;5030091;28;20518;-86
2023/03/15 02:08:51;;;;;;;3.93;2.33;;;;;;;1.97;100.00;151873.13;5058764;28;20477;-86
2023/03/15 02:11:20;;;;;;;3.40;1.90;;;;;;;1.94;100.00;151865.41;5072764;28;20489;-86
2023/03/15 02:13:49;;;;;;;3.87;2.30;;;;;;;1.93;100.00;151861.56;5041080;28;20464;-87
2023/03/15 02:16:16;;;;;;;5.67;2.20;;;;;;;1.87;100.00;151847.41;5032822;28;20477;-86
2023/03/15 02:18:50;;;;;;;4.60;2.20;;;;;;;1.83;100.00;151837.13;5035318;28;20435;-86
2023/03/15 02:21:31;;;;;;;2.43;1.67;;;;;;;1.78;100.00;151824.25;5062023;28;20448;-87
2023/03/15 02:24:03;;;;;;;3.00;1.80;;;;;;;1.73;100.00;151811.41;5063928;28;20548;-87
2023/03/15 02:26:37;;;;;;;2.73;1.80;;;;;;;1.81;100.00;151833.28;5036969;28;21056;-88
2023/03/15 02:29:05;;;;;;;3.20;1.60;;;;;;;1.79;100.00;151826.84;5078571;28;20447;-88
2023/03/15 02:31:36;;;;;;;2.83;1.57;;;;;;;1.78;100.00;151825.56;5037702;28;20909;-89
2023/03/15 02:34:04;;;;;;;3.03;1.50;;;;;;;1.73;100.00;151811.41;5069688;28;20493;-88
2023/03/15 02:36:31;;;;;;;2.50;1.60;;;;;;;1.71;100.00;151807.59;5055523;28;20952;-89
2023/03/15 02:38:59;;;;;;;2.50;1.60;;;;;;;1.64;100.00;151788.31;5052770;28;20446;-89
2023/03/15 02:41:29;;;;;;;2.47;1.70;;;;;;;1.59;100.00;151775.47;5040334;28;20445;-89
2023/03/15 02:43:59;;;;;;;2.73;1.53;;;;;;;1.60;100.00;151778.00;5042885;28;20981;-89
2023/03/15 02:46:28;;;;;;;3.93;1.30;;;;;;;1.56;100.00;151769.00;5046177;28;20551;-89
2023/03/15 02:48:54;;;;;;;2.03;1.30;;;;;;;1.56;100.00;151769.00;5032036;28;20447;-88
2023/03/15 02:51:23;;;;;;;4.40;1.53;;;;;;;1.54;100.00;151763.88;5061181;28;20949;-88
2023/03/15 02:53:51;;;;;;;2.20;1.60;;;;;;;1.54;100.00;151762.56;5034900;28;20453;-89
2023/03/15 02:56:19;;;;;;;1.83;1.10;;;;;;;1.49;100.00;151751.03;5072405;28;20955;-89
2023/03/15 02:58:46;;;;;;;2.30;1.40;;;;;;;1.45;100.00;151740.78;5043246;28;20426;-89
2023/03/15 03:01:15;;;;;;;2.97;1.70;;;;;;;1.46;100.00;151742.00;5033209;28;20449;-89
2023/03/15 03:03:44;;;;;;;3.60;1.57;;;;;;;1.45;100.00;151739.47;5049089;28;20445;-88
2023/03/15 03:06:13;;;;;;;2.67;1.30;;;;;;;1.43;100.00;151735.59;5038489;28;20446;-88
2023/03/15 03:08:40;;;;;;;3.73;1.50;;;;;;;1.35;100.00;151715.03;5048477;28;20527;-89
2023/03/15 03:11:08;;;;;;;4.73;1.50;;;;;;;1.33;100.00;151708.63;5044264;28;20500;-88
2023/03/15 03:13:37;;;;;;;2.90;1.87;;;;;;;1.32;100.00;151706.06;5036561;28;20438;-89
2023/03/15 03:16:05;;;;;;;3.10;1.50;;;;;;;1.26;100.00;151690.66;5035051;28;20564;-88
2023/03/15 03:18:34;;;;;;;3.03;1.70;;;;;;;1.23;100.00;151685.53;5033208;28;20442;-88
2023/03/15 03:21:04;;;;;;;2.47;1.60;;;;;;;1.22;100.00;151682.94;5032939;28;20837;-87
2023/03/15 03:23:32;;;;;;;3.50;1.70;;;;;;;1.22;100.00;151682.94;5042111;28;20449;-88
2023/03/15 03:26:00;;;;;;;2.30;1.77;;;;;;;1.16;100.00;151666.25;5045958;28;20485;-87
2023/03/15 03:28:29;;;;;;;2.77;1.73;;;;;;;1.17;100.00;151668.78;5034841;28;20462;-87
2023/03/15 03:30:57;;;;;;;2.30;1.33;;;;;;;1.16;100.00;151667.56;5033943;28;20442;-87
2023/03/15 03:33:24;;;;;;;2.93;1.50;;;;;;;1.15;100.00;151663.66;5054952;28;20812;-86
2023/03/15 03:35:51;;;;;;;3.20;1.50;;;;;;;1.15;100.00;151664.97;5054632;28;20875;-87
2023/03/15 03:38:19;;;;;;;2.40;1.40;;;;;;;1.09;100.00;151648.25;5035899;28;20503;-86
2023/03/15 03:40:51;;;;;;;2.60;1.50;;;;;;;1.10;100.00;151650.84;5051160;28;20574;-86
2023/03/15 03:43:18;;;;;;;2.40;1.80;;;;;;;1.14;100.00;151662.38;5061177;28;20845;-85
2023/03/15 03:45:46;;;;;;;3.40;1.40;;;;;;;1.11;100.00;151653.41;5035496;28;20469;-86
2023/03/15 03:48:13;;;;;;;3.10;2.20;;;;;;;1.08;100.00;151647.00;5051917;28;20472;-85
2023/03/15 03:50:39;;;;;;;3.00;1.97;;;;;;;1.08;100.00;151647.00;5063381;28;20438;-86
2023/03/15 03:53:06;;;;;;;3.83;1.73;;;;;;;1.03;100.00;151632.88;5077640;28;20948;-85
2023/03/15 03:55:37;;;;;;;3.43;2.10;;;;;;;1.00;100.00;151626.44;5053352;28;20477;-85
2023/03/15 03:58:04;;;;;;;2.93;1.97;;;;;;;1.02;100.00;151630.28;5043658;28;20481;-86
2023/03/15 04:00:38;;;;;;;2.80;1.90;;;;;;;0.95;100.00;151612.31;5052837;28;20454;-85
2023/03/15 04:03:06;;;;;;;2.30;1.63;;;;;;;0.88;100.00;151594.31;5038777;28;20440;-85
2023/03/15 04:05:36;;;;;;;5.17;1.97;;;;;;;0.90;100.00;151600.72;5035752;28;20454;-85
2023/03/15 04:08:02;;;;;;;5.27;1.57;;;;;;;0.83;100.00;151582.75;5061059;28;20442;-85
2023/03/15 04:10:35;;;;;;;4.83;1.83;;;;;;;0.79;100.00;151572.50;5053796;28;20862;-85
2023/03/15 04:13:03;;;;;;;2.00;1.47;;;;;;;0.81;100.00;151576.34;5039703;28;20440;-85
2023/03/15 04:15:30;;;;;;;2.70;2.03;;;;;;;0.78;100.00;151568.63;5045305;28;20505;-85
2023/03/15 04:17:57;;;;;;;3.77;2.10;;;;;;;0.71;100.00;151551.97;5053730;28;20457;-85
2023/03/15 04:20:28;;;;;;;2.93;1.90;;;;;;;0.68;100.00;151544.25;5048901;28;20465;-85
2023/03/15 04:22:55;;;;;;;3.57;2.27;;;;;;;0.68;100.00;151544.25;5072364;28;20481;-85
2023/03/15 04:25:40;;;;;;;3.63;1.80;;;;;;;0.67;100.00;151540.38;5056559;28;20484;-85
2023/03/15 04:28:25;;;;;;;4.33;2.70;;;;;;;0.62;100.00;151528.81;5077083;28;20523;-85
2023/03/15 04:31:03;;;;;;;2.63;2.17;;;;;;;0.64;100.00;151533.94;5035284;28;20465;-85
2023/03/15 04:33:56;;;;;;;3.70;2.43;;;;;;;0.64;100.00;151533.94;5032487;28;20426;-86
2023/03/15 04:36:46;;;;;;;5.53;2.03;;;;;;;0.59;100.00;151521.13;5049715;28;20445;-86
2023/03/15 04:39:33;;;;;;;4.00;2.50;;;;;;;0.56;100.00;151514.69;5063930;28;20866;-84
2023/03/15 04:42:11;;;;;;;7.60;2.40;;;;;;;0.56;100.00;151514.69;5077256;28;20466;-86
2023/03/15 04:44:56;;;;;;;6.20;2.90;;;;;;;0.48;100.00;151494.16;5070324;28;20440;-85
2023/03/15 04:47:37;;;;;;;4.40;2.60;;;;;;;0.46;100.00;151487.75;5035156;28;20432;-85
2023/03/15 04:50:04;;;;;;;5.10;2.53;;;;;;;0.43;100.00;151480.03;5050493;28;20458;-85
2023/03/15 04:52:54;;;;;;;5.23;2.67;;;;;;;0.43;100.00;151480.03;5064498;28;20451;-85
2023/03/15 04:55:47;;;;;;;3.87;2.97;;;;;;;0.33;100.00;151454.38;5060135;28;20555;-86
2023/03/15 04:58:29;;;;;;;5.57;3.37;;;;;;;0.34;100.00;151458.25;5063427;28;20441;-86
2023/03/15 05:01:16;;;;;;;3.17;2.70;;;;;;;0.32;100.00;151451.84;5038458;28;20783;-86
2023/03/15 05:04:03;;;;;;;4.53;3.20;;;;;;;0.29;100.00;151444.13;5065735;28;20507;-85
2023/03/15 05:06:57;;;;;;;4.90;2.97;;;;;;;0.31;100.00;151450.53;5051947;28;20445;-86
2023/03/15 05:09:37;;;;;;;3.33;3.03;;;;;;;0.28;100.00;151442.84;5052932;28;20482;-86
2023/03/15 05:12:24;;;;;;;5.60;2.87;;;;;;;0.27;100.00;151438.97;5047837;28;20450;-86
2023/03/15 05:15:01;;;;;;;4.40;3.23;;;;;;;0.25;100.00;151433.84;5045830;28;20485;-85
2023/03/15 05:17:57;;;;;;;4.20;2.80;;;;;;;0.24;100.00;151432.53;5057948;28;20439;-86
2023/03/15 05:20:42;;;;;;;8.30;3.53;;;;;;;0.17;100.00;151413.28;5078982;28;20978;-85
2023/03/15 05:23:17;;;;;;;6.10;3.13;;;;;;;0.13;100.00;151403.06;5034618;28;20494;-85
2023/03/15 05:26:03;;;;;;;5.60;3.30;;;;;;;0.12;100.00;151400.47;5054054;28;20453;-85
2023/03/15 05:29:05;;;;;;;4.23;3.23;;;;;;;0.13;100.00;151403.06;5006973;28;20552;-85
2023/03/15 05:31:53;;;;;;;5.00;3.50;;;;;;;0.13;100.00;151403.06;5052045;28;20457;-85
2023/03/15 05:34:38;;;;;;;5.30;3.53;;;;;;;0.09;100.00;151392.75;5068146;28;20828;-86
2023/03/15 05:37:27;;;;;;;5.50;4.00;;;;;;;0.09;100.00;151392.75;5037269;28;20454;-86
2023/03/15 05:40:15;;;;;;;6.23;4.00;;;;;;;0.10;100.00;151395.34;5068737;28;20808;-85
2023/03/15 05:42:59;;;;;;;3.70;3.27;;;;;;;0.16;100.00;151412.00;5042543;28;20535;-86
2023/03/15 05:45:49;;;;;;;5.10;3.30;;;;;;;0.21;100.00;151424.88;5042774;28;20464;-83
2023/03/15 05:48:35;;;;;;;5.53;3.60;;;;;;;0.26;100.00;151437.72;5070472;28;20441;-84
2023/03/15 05:51:12;;;;;;;4.43;3.47;;;;;;;0.22;100.00;151427.41;5072400;28;20455;-84
2023/03/15 05:53:59;;;;;;;5.20;3.93;;;;;;;0.26;100.00;151436.41;5064834;28;20794;-83
2023/03/15 05:56:38;;;;;;;6.50;4.30;;;;;;;0.29;100.00;151444.13;5049960;28;20502;-84
2023/03/15 05:59:16;;;;;;;5.17;3.07;;;;;;;0.28;100.00;151441.53;5074694;28;20515;-84
2023/03/15 06:02:04;;;;;;;6.30;4.10;;;;;;;0.27;100.00;151438.97;5053267;28;20447;-84
2023/03/15 06:04:41;;;;;;;5.17;3.60;;;;;;;0.26;100.00;151436.41;5056170;28;20516;-84
2023/03/15 06:07:10;;;;;;;4.37;3.23;;;;;;;0.23;100.00;151430.00;5054096;28;20498;-84
2023/03/15 06:09:38;;;;;;;7.33;3.90;;;;;;;0.23;100.00;151428.72;5041185;28;21121;-84
2023/03/15 06:12:06;;;;;;;4.73;3.63;;;;;;;0.22;100.00;151426.13;5023599;28;20466;-84
2023/03/15 06:14:33;;;;;;;5.37;3.13;;;;;;;0.27;100.00;151438.97;5023974;28;20454;-83
2023/03/15 06:17:06;;;;;;;4.13;3.03;;;;;;;0.31;100.00;151449.25;5025419;28;20486;-84
2023/03/15 06:19:33;;;;;;;5.53;3.23;;;;;;;0.36;100.00;151462.09;5035779;28;20474;-83
2023/03/15 06:22:02;;;;;;;5.37;3.57;;;;;;;0.48;100.00;151492.88;5033127;28;20456;-84
2023/03/15 06:24:46;;;;;;;3.63;3.33;;;;;;;0.62;100.00;151528.81;5017278;28;20461;-84
2023/03/15 06:27:13;;;;;;;5.07;3.73;;;;;;;0.76;100.00;151564.81;5033453;28;20552;-84
2023/03/15 06:29:41;;;;;;;4.87;3.67;;;;;;;0.92;100.00;151605.91;5019731;28;20496;-84
2023/03/15 06:32:09;;;;;;;6.30;3.67;;;;;;;1.15;100.00;151664.97;5031855;28;20451;-83
2023/03/15 06:34:38;;;;;;;4.37;3.60;;;;;;;1.42;100.00;151733.06;5015527;28;20981;-84
2023/03/15 06:37:06;;;;;;;5.37;3.40;;;;;;;1.68;100.00;151798.56;5018175;28;20469;-84
2023/03/15 06:39:34;;;;;;;4.60;3.37;;;;;;;1.95;100.00;151868.00;5019239;28;20574;-84
2023/03/15 06:42:02;;;;;;;7.13;4.10;;;;;;;2.23;100.00;151939.97;5017966;28;20455;-84
2023/03/15 06:44:31;;;;;;;7.27;3.83;;;;;;;2.53;100.00;152014.56;5014836;28;20453;-83
2023/03/15 06:47:02;;;;;;;5.70;3.43;;;;;;;2.77;100.00;152076.28;5033080;28;20452;-83
2023/03/15 06:49:29;;;;;;;5.13;3.70;;;;;;;2.94;98.96;152120.00;5035656;28;20555;-84
2023/03/15 06:51:56;;;;;;;5.10;3.40;;;;;;;3.14;97.52;152170.22;5012915;28;20515;-84
2023/03/15 06:54:25;;;;;;;5.27;3.40;;;;;;;3.32;96.36;152217.81;5031038;28;20445;-84
2023/03/15 06:56:51;;;;;;;4.60;3.40;;;;;;;3.48;96.06;152259.00;5021837;28;20458;-84
2023/03/15 06:59:18;;;;;;;4.40;3.60;;;;;;;3.66;96.51;152304.06;5017140;28;20529;-84
2023/03/15 07:01:45;;;;;;;5.80;3.13;;;;;;;3.82;95.53;152343.97;5032194;28;20932;-83
2023/03/15 07:04:11;;;;;;;8.87;3.47;;;;;;;3.98;95.29;152385.16;5031919;28;20946;-84
2023/03/15 07:06:38;;;;;;;6.13;3.17;;;;;;;4.10;93.21;152416.09;5032684;28;20535;-84
2023/03/15 07:09:05;;;;;;;3.90;2.83;;;;;;;4.21;92.00;152444.41;5030485;28;20535;-84
2023/03/15 07:11:33;;;;;;;5.17;3.10;;;;;;;4.37;90.85;152484.38;5057903;28;20435;-85
2023/03/15 07:14:00;;;;;;;3.73;3.03;;;;;;;4.55;90.03;152530.72;5058338;28;20527;-85
2023/03/15 07:16:27;;;;;;;3.57;2.50;;;;;;;4.71;89.40;152573.22;5058478;28;20557;-84
2023/03/15 07:18:55;;;;;;;6.63;2.70;;;;;;;4.96;88.85;152635.06;5043714;28;20449;-84
2023/03/15 07:21:22;;;;;;;6.03;2.60;;;;;;;5.17;87.95;152690.50;5059308;28;20458;-84
2023/03/15 07:23:48;;;;;;;3.73;2.07;;;;;;;5.37;87.19;152742.09;5056245;28;20905;-85
2023/03/15 07:26:15;;;;;;;2.70;2.20;;;;;;;5.50;85.57;152774.31;5061900;28;20478;-85
2023/03/15 07:28:43;;;;;;;2.87;2.23;;;;;;;5.73;84.70;152833.63;5060944;28;20458;-85
2023/03/15 07:31:11;;;;;;;3.30;2.80;;;;;;;5.82;83.93;152856.88;5058516;28;20496;-85
2023/03/15 07:33:38;;;;;;;4.50;1.93;;;;;;;6.00;84.03;152903.34;5064230;28;20981;-85
2023/03/15 07:36:06;;;;;;;3.97;2.57;;;;;;;6.21;82.78;152954.94;5061786;28;20549;-84
2023/03/15 07:38:34;;;;;;;4.70;2.40;;;;;;;6.39;81.18;153001.38;5032081;28;20492;-84
2023/03/15 07:41:01;;;;;;;2.97;2.13;;;;;;;6.52;80.54;153034.91;5044267;28;20455;-85
2023/03/15 07:43:28;;;;;;;3.80;2.00;;;;;;;6.71;79.34;153083.97;5045813;28;20450;-85
2023/03/15 07:46:08;;;;;;;4.67;2.43;;;;;;;6.81;78.79;153108.47;5061011;28;20473;-85
2023/03/15 07:48:34;;;;;;;4.50;2.80;;;;;;;6.99;78.45;153156.25;5062455;28;20442;-84
2023/03/15 07:51:01;;;;;;;4.27;2.47;;;;;;;7.22;76.36;153215.66;5061351;28;20463;-84
2023/03/15 07:53:28;;;;;;;6.27;2.63;;;;;;;7.26;77.77;153224.66;5060835;28;20528;-85
2023/03/15 07:55:55;;;;;;;4.50;2.80;;;;;;;7.26;77.55;153225.97;5060859;28;20477;-85
2023/03/15 07:58:21;;;;;;;5.03;2.50;;;;;;;7.43;77.21;153267.31;5066022;28;20485;-85
2023/03/15 08:00:48;;;;;;;5.03;2.70;;;;;;;7.65;76.55;153325.41;5061575;28;20852;-86
2023/03/15 08:03:17;;;;;;;5.47;2.40;;;;;;;7.88;77.38;153384.88;5062108;28;20441;-86
2023/03/15 08:05:43;;;;;;;2.53;1.80;;;;;;;7.96;74.83;153404.22;5041024;28;20953;-86
2023/03/15 08:08:10;;;;;;;6.33;2.10;;;;;;;7.86;74.99;153379.66;5063488;28;20454;-86
2023/03/15 08:10:37;;;;;;;4.40;2.03;;;;;;;7.80;74.94;153364.19;5060968;28;20473;-86
2023/03/15 08:13:04;;;;;;;2.80;2.10;;;;;;;7.91;73.92;153392.63;5062309;28;20489;-86
2023/03/15 08:15:30;;;;;;;3.00;2.00;;;;;;;7.47;71.90;153277.63;5060674;28;20453;-86
2023/03/15 08:17:58;;;;;;;3.70;2.30;;;;;;;7.09;75.70;153182.09;5063628;28;20447;-86
2023/03/15 08:20:27;;;;;;;7.47;2.33;;;;;;;6.98;76.80;153152.38;5043739;28;20451;-86
2023/03/15 08:22:53;;;;;;;5.53;2.20;;;;;;;6.95;77.37;153145.94;5048090;28;20432;-86
2023/03/15 08:25:23;;;;;;;6.73;1.83;;;;;;;6.94;78.88;153143.34;5044361;28;20512;-86
2023/03/15 08:27:51;;;;;;;3.20;2.23;;;;;;;6.95;77.58;153144.63;5063560;28;20434;-86
2023/03/15 08:30:21;;;;;;;2.90;2.40;;;;;;;7.02;80.11;153162.69;5042384;28;20954;-85
2023/03/15 08:32:50;;;;;;;3.00;2.33;;;;;;;6.96;78.23;153147.25;5060398;28;20474;-85
2023/03/15 08:35:18;;;;;;;2.60;1.80;;;;;;;6.91;77.65;153134.34;5055963;28;20479;-84
2023/03/15 08:37:47;;;;;;;3.93;2.50;;;;;;;6.81;78.51;153109.78;5040698;28;20461;-84
2023/03/15 08:40:14;;;;;;;4.10;1.90;;;;;;;6.67;76.29;153074.91;5057812;28;20451;-84
2023/03/15 08:42:41;;;;;;;6.90;2.70;;;;;;;6.63;79.87;153063.31;5060182;28;20439;-85
2023/03/15 08:45:10;;;;;;;3.80;1.90;;;;;;;6.56;78.73;153045.25;5060296;28;20512;-84
2023/03/15 08:47:37;;;;;;;3.93;1.90;;;;;;;6.52;80.71;153034.91;5059853;28;20855;-85
2023/03/15 08:50:04;;;;;;;2.30;1.70;;;;;;;6.50;80.22;153029.75;5060487;28;20552;-77
2023/03/15 08:52:31;;;;;;;2.53;1.90;;;;;;;6.58;81.30;153050.41;5057232;28;20528;-77
2023/03/15 08:55:00;;;;;;;3.03;1.77;;;;;;;6.61;81.23;153058.16;5059781;28;20458;-77
2023/03/15 08:57:27;;;;;;;2.50;1.80;;;;;;;6.55;80.43;153042.66;5032527;28;20747;-77
2023/03/15 08:59:54;;;;;;;3.80;2.20;;;;;;;6.50;80.61;153031.06;5059276;28;20553;-77
2023/03/15 09:02:22;;;;;;;4.03;1.53;;;;;;;6.49;81.36;153027.16;5059290;28;20928;-77
2023/03/15 09:04:49;;;;;;;2.80;1.70;;;;;;;6.46;80.47;153019.47;5057398;28;20455;-77
2023/03/15 09:07:15;;;;;;;2.60;2.37;;;;;;;6.36;78.78;152994.91;5056628;28;20450;-77
2023/03/15 09:09:47;;;;;;;3.33;2.10;;;;;;;6.29;78.93;152976.88;5054650;28;20530;-77
2023/03/15 09:12:16;;;;;;;5.00;2.40;;;;;;;6.22;78.48;152957.53;5018545;28;20684;-77
2023/03/15 09:14:43;;;;;;;2.70;1.90;;;;;;;6.21;78.75;152954.94;5034995;28;20449;-77
2023/03/15 09:17:10;;;;;;;2.50;2.00;;;;;;;6.16;80.85;152942.03;5034761;28;20567;-77
2023/03/15 09:19:37;;;;;;;5.17;2.40;;;;;;;6.17;80.66;152944.63;5020994;28;20453;-77
2023/03/15 09:22:03;;;;;;;2.00;1.40;;;;;;;6.16;79.35;152943.31;5021872;28;20817;-77
2023/03/15 09:24:30;;;;;;;4.60;1.90;;;;;;;6.17;79.87;152944.63;5034918;28;20484;-77
2023/03/15 09:26:57;;;;;;;4.20;2.13;;;;;;;6.16;79.55;152943.31;5018663;28;20899;-77
2023/03/15 09:29:25;;;;;;;2.73;2.37;;;;;;;6.20;79.29;152952.31;5023370;28;20523;-77
2023/03/15 09:31:52;;;;;;;3.27;1.90;;;;;;;6.19;78.43;152949.78;5018481;28;20864;-77
2023/03/15 09:34:19;;;;;;;3.53;2.03;;;;;;;6.13;77.15;152936.88;5020015;28;20464;-77
2023/03/15 09:36:51;;;;;;;2.90;1.73;;;;;;;6.21;77.35;152954.94;5016450;28;20473;-77
2023/03/15 09:39:19;;;;;;;2.40;1.60;;;;;;;6.12;76.62;152934.28;5023530;28;20781;-77
2023/03/15 09:41:48;;;;;;;4.80;2.37;;;;;;;6.05;80.50;152914.94;5018378;28;20548;-77
2023/03/15 09:44:22;;;;;;;3.77;1.90;;;;;;;6.00;82.30;152903.34;5018152;28;20488;-77
2023/03/15 09:46:57;;;;;;;2.30;1.70;;;;;;;6.03;82.94;152909.78;5020436;28;20486;-77
2023/03/15 09:49:33;;;;;;;3.33;1.90;;;;;;;6.00;82.72;152903.34;5020649;28;20455;-77
2023/03/15 09:52:02;;;;;;;2.77;1.70;;;;;;;5.93;77.94;152884.00;5035611;28;20492;-76
2023/03/15 09:54:32;;;;;;;3.00;2.20;;;;;;;5.97;79.47;152894.28;5035398;28;20452;-76
2023/03/15 09:57:01;;;;;;;4.33;1.87;;;;;;;5.91;77.71;152878.81;5019035;28;20486;-77
2023/03/15 09:59:32;;;;;;;2.77;1.50;;;;;;;5.92;78.45;152882.69;5007401;28;20834;-77
2023/03/15 10:02:04;;;;;;;4.10;2.10;;;;;;;5.87;79.62;152869.81;5037101;28;20551;-77
2023/03/15 10:04:33;;;;;;;3.40;1.90;;;;;;;5.85;81.11;152864.63;5020181;28;20451;-77
2023/03/15 10:07:02;;;;;;;4.40;2.10;;;;;;;5.80;79.78;152851.66;5035054;28;20879;-77
2023/03/15 10:09:31;;;;;;;2.77;1.63;;;;;;;5.79;82.41;152847.81;5035595;28;20962;-77
2023/03/15 10:12:04;;;;;;;3.03;2.17;;;;;;;5.78;82.63;152846.53;5047440;28;20496;-77
2023/03/15 10:14:58;;;;;;;2.13;1.50;;;;;;;5.81;84.94;152854.28;5058281;28;20485;-77
2023/03/15 10:17:31;;;;;;;3.10;1.50;;;;;;;5.81;83.61;152854.28;5023883;28;20989;-77
2023/03/15 10:20:00;;;;;;;2.40;2.20;;;;;;;5.79;82.82;152849.13;5043602;28;21100;-77
2023/03/15 10:22:30;;;;;;;3.93;1.70;;;;;;;5.79;77.95;152849.13;5059051;28;20435;-77
2023/03/15 10:25:00;;;;;;;2.87;1.70;;;;;;;5.93;82.05;152884.00;5057710;28;20516;-77
2023/03/15 10:27:32;;;;;;;2.77;2.10;;;;;;;6.04;83.59;152912.34;5038441;28;20612;-78
2023/03/15 10:29:59;;;;;;;2.77;1.47;;;;;;;6.10;84.75;152929.13;5060064;28;20462;-76
2023/03/15 10:32:30;;;;;;;2.87;1.50;;;;;;;6.15;81.16;152940.72;5059921;28;20447;-76
2023/03/15 10:34:58;;;;;;;3.40;1.50;;;;;;;6.12;77.37;152932.97;5056724;28;20499;-77
2023/03/15 10:37:26;;;;;;;3.93;1.63;;;;;;;6.14;79.97;152939.44;5058293;28;20954;-76
2023/03/15 10:39:56;;;;;;;2.50;1.60;;;;;;;6.15;79.33;152940.72;5059216;28;20458;-76
2023/03/15 10:42:27;;;;;;;2.13;1.30;;;;;;;6.16;81.77;152942.03;5040728;28;20455;-77
2023/03/15 10:44:54;;;;;;;1.97;1.60;;;;;;;6.13;80.76;152936.88;5057563;28;20466;-76
2023/03/15 10:47:22;;;;;;;5.07;1.57;;;;;;;6.15;79.75;152940.72;5043004;28;20478;-76
2023/03/15 10:49:51;;;;;;;2.20;1.13;;;;;;;6.16;76.89;152942.03;5044798;28;20457;-76
2023/03/15 10:52:33;;;;;;;2.30;1.10;;;;;;;6.25;80.50;152965.28;5056159;28;20458;-77
2023/03/15 10:55:01;;;;;;;2.50;1.20;;;;;;;6.27;75.90;152971.72;5054993;28;20466;-77
2023/03/15 10:57:34;;;;;;;1.47;1.27;;;;;;;6.37;79.20;152996.22;5056941;28;20911;-77
2023/03/15 11:00:05;;;;;;;3.00;1.70;;;;;;;6.45;75.33;153016.88;5060067;28;20557;-77
2023/03/15 11:02:32;;;;;;;1.50;1.17;;;;;;;6.51;74.63;153032.38;5062631;28;20456;-77
2023/03/15 11:05:03;;;;;;;3.87;1.20;;;;;;;6.64;74.11;153067.22;5063285;28;20538;-77
2023/03/15 11:07:31;;;;;;;6.33;1.37;;;;;;;6.65;69.97;153068.47;5062075;28;20446;-77
2023/03/15 11:10:00;;;;;;;2.30;1.50;;;;;;;6.71;77.69;153083.97;5059586;28;21031;-77
2023/03/15 11:12:28;;;;;;;2.53;1.03;;;;;;;6.69;79.04;153078.81;5049516;28;21017;-77
2023/03/15 11:14:58;;;;;;;1.60;1.30;;;;;;;6.68;76.62;153076.22;5051800;28;20450;-77
2023/03/15 11:17:26;;;;;;;2.50;1.37;;;;;;;6.68;79.03;153076.22;5060776;28;20473;-77
2023/03/15 11:19:55;;;;;;;1.70;1.43;;;;;;;6.63;79.82;153063.31;5061588;28;21102;-77
2023/03/15 11:22:24;;;;;;;2.70;1.40;;;;;;;6.58;79.65;153050.41;5059592;28;21140;-77
2023/03/15 11:24:53;;;;;;;1.53;1.23;;;;;;;6.55;81.54;153043.97;5059479;28;20462;-77
2023/03/15 11:27:22;;;;;;;1.83;1.27;;;;;;;6.50;78.59;153031.06;5062800;28;20450;-77
2023/03/15 11:29:51;;;;;;;3.73;1.13;;;;;;;6.49;76.23;153027.16;5063550;28;20453;-77
2023/03/15 11:32:20;;;;;;;1.87;1.37;;;;;;;6.55;77.84;153042.66;5060460;28;20543;-77
2023/03/15 11:34:52;;;;;;;3.93;1.63;;;;;;;6.56;79.39;153045.25;5060681;28;20481;-77
2023/03/15 11:37:21;;;;;;;1.37;1.10;;;;;;;6.46;81.96;153019.47;5048274;28;20999;-77
2023/03/15 11:39:54;;;;;;;2.50;1.50;;;;;;;6.42;79.43;153009.13;5049095;28;20478;-77
2023/03/15 11:42:24;;;;;;;1.53;1.13;;;;;;;6.43;80.77;153011.72;5061453;28;20477;-77
2023/03/15 11:44:54;;;;;;;1.73;1.27;;;;;;;6.45;81.43;153016.88;5059016;28;20493;-77
2023/03/15 11:47:29;;;;;;;1.87;1.20;;;;;;;6.44;82.80;153014.28;5058341;28;20447;-77